Ince Evrenye — 9V2456 — position and weather

sailwx.info

Track history (hours):
 
Tides and Currents Weather Stations Pressure Air Temp Water Temp Dewpoint Dewpoint Depression Visibility Wind Speed Wind Dir Waves Ship Positions

Ince Evrenye

Last reported at 2017-Oct-12 00:43 UTC. Time now 2017-Oct-17 11:47 UTC.
Position N 40°47' E 028°60'.

Length 170 m; draft 5.2 m.

Type: Cargo ship. MMSI: 563533000.

Date/timePositionNaut miles runAvg speedWind from/ knotsBaromVisibWave heightAir tempDewpointWater temp
2017-Oct-12 00:43N 40°47' E 028°60'1 6.1
2017-Oct-12 00:30N 40°48' E 028°59'3 6.0
2017-Oct-12 00:00N 40°50' E 028°56'1 2.3
2017-Oct-11 23:30N 40°51' E 028°55'0 0.9
2017-Oct-11 23:00N 40°51' E 028°55'0 0.8
2017-Oct-11 22:30N 40°50' E 028°56'0 0.7
2017-Oct-11 22:00N 40°51' E 028°55'1 1.1
2017-Oct-11 21:30N 40°51' E 028°55'  
2017-Oct-05 23:34N 36°17' E 014°49'111.0
2017-Oct-05 23:30N 36°17' E 014°48'511.0
2017-Oct-05 23:00N 36°19' E 014°41'611.2
2017-Oct-05 22:30N 36°20' E 014°34'611.3
2017-Oct-05 22:00N 36°22' E 014°28'611.3
2017-Oct-05 21:30N 36°24' E 014°21'611.2
2017-Oct-05 21:00N 36°26' E 014°15'611.3
2017-Oct-05 20:30N 36°28' E 014°08'611.3
2017-Oct-05 20:00N 36°30' E 014°01'611.3
2017-Oct-05 19:30N 36°32' E 013°55'611.4
2017-Oct-05 19:00N 36°34' E 013°48'611.3
2017-Oct-05 18:28N 36°36' E 013°41'1011.3
2017-Oct-05 17:32N 36°40' E 013°29'  
Track history (hours):
 
Tides and Currents Weather Stations Pressure Air Temp Water Temp Dewpoint Dewpoint Depression Visibility Wind Speed Wind Dir Waves Ship Positions

Ince Evrenye

Last reported at 2017-Oct-12 00:43 UTC. Time now 2017-Oct-17 11:47 UTC.
Position N 40°47' E 028°60'.

Length 170 m; draft 5.2 m.

Type: Cargo ship. MMSI: 563533000.

Date/timePositionNaut miles runAvg speedWind from/ knotsBaromVisibWave heightAir tempDewpointWater temp
2017-Oct-12 00:43N 40°47' E 028°60'1 6.1
2017-Oct-12 00:30N 40°48' E 028°59'3 6.0
2017-Oct-12 00:00N 40°50' E 028°56'1 2.3
2017-Oct-11 23:30N 40°51' E 028°55'0 0.9
2017-Oct-11 23:00N 40°51' E 028°55'0 0.8
2017-Oct-11 22:30N 40°50' E 028°56'0 0.7
2017-Oct-11 22:00N 40°51' E 028°55'1 1.1
2017-Oct-11 21:30N 40°51' E 028°55'  
2017-Oct-05 23:34N 36°17' E 014°49'111.0
2017-Oct-05 23:30N 36°17' E 014°48'511.0
2017-Oct-05 23:00N 36°19' E 014°41'611.2
2017-Oct-05 22:30N 36°20' E 014°34'611.3
2017-Oct-05 22:00N 36°22' E 014°28'611.3
2017-Oct-05 21:30N 36°24' E 014°21'611.2
2017-Oct-05 21:00N 36°26' E 014°15'611.3
2017-Oct-05 20:30N 36°28' E 014°08'611.3
2017-Oct-05 20:00N 36°30' E 014°01'611.3
2017-Oct-05 19:30N 36°32' E 013°55'611.4
2017-Oct-05 19:00N 36°34' E 013°48'611.3
2017-Oct-05 18:28N 36°36' E 013°41'1011.3
2017-Oct-05 17:32N 36°40' E 013°29'  

Dump ship's entire track history